Smithville, Georgia
Current Conditions -  °F | °C
As of 12:35 AM on Monday 20 Oct 2014 (Local Time) from KACJ Reporting Station
Clear Clear  
Wind Chill: 52°   Ceiling: Unl
Heat Index: 52°   Visibility: 10mi
Dew Point: 50°   Wind: 0mph
Humidity: 94%   Direction: NA
Pressure: 30.12"   Gusts: NA
Location:  31.9°N, 84.25°W
Report Text: KACJ 200435Z AUTO 00000KT 10SM CLR 11/10 A3012 RMK AO2
Loading
Personal Weather Stations






























Interactive Weather Map
Tropical Storm Tracking
New forecast layout! Learn more

10-Day Weather Forecast

Advertisements
Track Severe Weather on mobile